createdAt,value
2024-02-09T00:01:22.064Z,2.80
2024-02-09T00:03:48.797Z,2.70
2024-02-09T00:06:15.360Z,2.53
2024-02-09T00:08:42.136Z,2.67
2024-02-09T00:11:13.502Z,3.15
2024-02-09T00:13:43.946Z,2.85
2024-02-09T00:16:11.117Z,2.70
2024-02-09T00:18:38.678Z,2.80
2024-02-09T00:21:05.310Z,3.35
2024-02-09T00:23:35.004Z,2.72
2024-02-09T00:26:01.967Z,2.60
2024-02-09T00:28:28.923Z,2.80
2024-02-09T00:30:55.553Z,3.00
2024-02-09T00:33:25.131Z,3.00
2024-02-09T00:35:51.689Z,2.75
2024-02-09T00:38:21.210Z,2.90
2024-02-09T00:40:49.505Z,3.03
2024-02-09T00:43:18.273Z,3.00
2024-02-09T00:45:45.181Z,3.20
2024-02-09T00:48:12.744Z,3.50
2024-02-09T00:50:39.271Z,2.97
2024-02-09T00:53:06.405Z,3.33
2024-02-09T00:55:33.253Z,3.10
2024-02-09T00:57:59.915Z,3.83
2024-02-09T01:00:27.532Z,3.17
2024-02-09T01:02:54.114Z,3.38
2024-02-09T01:05:21.283Z,2.85
2024-02-09T01:07:51.720Z,3.20
2024-02-09T01:10:18.334Z,3.05
2024-02-09T01:13:03.564Z,3.42
2024-02-09T01:15:48.840Z,2.95
2024-02-09T01:18:36.922Z,2.85
2024-02-09T01:21:22.368Z,3.08
2024-02-09T01:24:07.669Z,3.08
2024-02-09T01:26:52.660Z,2.70
2024-02-09T01:29:37.459Z,3.00
2024-02-09T01:32:22.449Z,2.92
2024-02-09T01:35:07.719Z,2.80
2024-02-09T01:37:52.844Z,2.78
2024-02-09T01:40:37.839Z,2.58
2024-02-09T01:43:23.974Z,2.83
2024-02-09T01:46:12.217Z,3.00
2024-02-09T01:49:01.250Z,3.05
2024-02-09T01:51:47.741Z,2.90
2024-02-09T01:54:32.948Z,2.85
2024-02-09T01:57:18.436Z,2.78
2024-02-09T02:00:10.119Z,2.55
2024-02-09T02:02:55.721Z,2.53
2024-02-09T02:05:40.893Z,2.40
2024-02-09T02:08:26.010Z,2.80
2024-02-09T02:11:11.122Z,2.53
2024-02-09T02:13:56.023Z,2.90
2024-02-09T02:16:41.165Z,3.00
2024-02-09T02:19:26.654Z,2.65
2024-02-09T02:22:24.434Z,2.92
2024-02-09T02:25:18.948Z,2.50
2024-02-09T02:28:04.244Z,2.65
2024-02-09T02:30:49.055Z,2.40
2024-02-09T02:33:34.420Z,2.45
2024-02-09T02:36:20.073Z,3.05
2024-02-09T02:39:05.126Z,2.80
2024-02-09T02:41:34.110Z,2.45
2024-02-09T02:44:00.732Z,2.42
2024-02-09T02:46:27.438Z,3.28
2024-02-09T02:49:12.613Z,2.70
2024-02-09T02:51:58.003Z,2.60
2024-02-09T02:54:43.169Z,2.78
2024-02-09T02:57:28.738Z,2.72
2024-02-09T03:00:14.927Z,2.47
2024-02-09T03:03:01.572Z,2.92
2024-02-09T03:05:29.271Z,3.15
2024-02-09T03:10:36.793Z,3.17
2024-02-09T03:13:03.386Z,2.90
2024-02-09T03:15:29.835Z,2.70
2024-02-09T03:17:56.402Z,2.88
2024-02-09T03:20:26.127Z,2.47
2024-02-09T03:22:53.157Z,3.10
2024-02-09T03:25:20.057Z,2.88
2024-02-09T03:27:46.569Z,3.35
2024-02-09T03:30:13.144Z,2.92
2024-02-09T03:32:45.720Z,3.15
2024-02-09T03:35:13.500Z,3.30
2024-02-09T03:37:45.753Z,3.42
2024-02-09T03:40:15.783Z,2.85
2024-02-09T03:42:42.538Z,3.35
2024-02-09T03:45:09.348Z,3.17
2024-02-09T03:47:36.270Z,2.95
2024-02-09T03:50:05.421Z,3.30
2024-02-09T03:52:32.310Z,3.15
2024-02-09T03:54:58.875Z,2.95
2024-02-09T03:57:27.101Z,2.97
2024-02-09T03:59:54.463Z,3.13
2024-02-09T04:02:21.687Z,3.20
2024-02-09T04:04:51.661Z,2.95
2024-02-09T04:07:23.127Z,3.40
2024-02-09T04:12:19.996Z,3.58
2024-02-09T04:14:46.589Z,3.83
2024-02-09T04:17:13.496Z,4.10
2024-02-09T04:19:40.022Z,4.90
2024-02-09T04:22:09.579Z,4.88
2024-02-09T04:24:38.115Z,4.18
2024-02-09T04:27:05.700Z,4.70
2024-02-09T04:29:34.123Z,4.30
2024-02-09T04:32:02.394Z,4.30
2024-02-09T04:34:29.043Z,4.35
2024-02-09T04:36:56.996Z,4.70
2024-02-09T04:39:23.642Z,4.50
2024-02-09T04:41:51.575Z,4.20
2024-02-09T04:44:18.124Z,4.60
2024-02-09T04:46:44.680Z,4.60
2024-02-09T04:49:12.000Z,5.10
2024-02-09T04:51:47.779Z,5.05
2024-02-09T04:54:14.991Z,5.68
2024-02-09T04:56:43.840Z,6.07
2024-02-09T04:59:11.080Z,6.00
2024-02-09T05:01:41.585Z,6.47
2024-02-09T05:04:13.206Z,6.53
2024-02-09T05:06:40.523Z,6.93
2024-02-09T05:09:10.044Z,6.70
2024-02-09T05:11:38.034Z,7.13
2024-02-09T05:14:09.348Z,6.93
2024-02-09T05:16:38.909Z,7.22
2024-02-09T05:19:05.703Z,7.05
2024-02-09T05:21:35.546Z,7.15
2024-02-09T05:24:03.448Z,6.70
2024-02-09T05:26:30.966Z,6.90
2024-02-09T05:28:57.549Z,6.90
2024-02-09T05:31:27.648Z,7.40
2024-02-09T05:33:54.445Z,7.15
2024-02-09T05:36:25.043Z,7.45
2024-02-09T05:39:02.135Z,7.82
2024-02-09T05:41:31.370Z,8.00
2024-02-09T05:43:58.707Z,7.75
2024-02-09T05:46:30.042Z,7.63
2024-02-09T05:48:57.707Z,8.25
2024-02-09T05:51:25.288Z,8.18
2024-02-09T05:53:52.033Z,8.07
2024-02-09T05:56:22.610Z,8.07
2024-02-09T05:58:49.406Z,8.23
2024-02-09T06:01:16.023Z,9.18
2024-02-09T06:03:43.148Z,8.93
2024-02-09T06:06:13.686Z,8.10
2024-02-09T06:08:40.352Z,9.00
2024-02-09T06:11:06.893Z,8.15
2024-02-09T06:13:33.440Z,8.85
2024-02-09T06:16:00.129Z,9.88
2024-02-09T06:18:28.462Z,9.75
2024-02-09T06:20:56.014Z,8.75
2024-02-09T06:23:24.747Z,9.27
2024-02-09T06:25:51.957Z,9.50
2024-02-09T06:28:20.365Z,9.38
2024-02-09T06:30:48.643Z,9.32
2024-02-09T06:33:20.705Z,9.00
2024-02-09T06:35:47.830Z,8.20
2024-02-09T06:38:14.664Z,7.38
2024-02-09T06:40:41.444Z,7.68
2024-02-09T06:43:08.285Z,8.07
2024-02-09T06:45:36.619Z,7.60
2024-02-09T06:48:04.292Z,7.38
2024-02-09T06:50:35.515Z,7.28
2024-02-09T06:53:08.585Z,6.82
2024-02-09T06:55:37.417Z,7.03
2024-02-09T06:58:04.812Z,7.60
2024-02-09T07:00:34.132Z,6.80
2024-02-09T07:03:00.875Z,7.05
2024-02-09T07:05:27.452Z,7.28
2024-02-09T07:07:54.332Z,6.68
2024-02-09T07:10:24.243Z,6.57
2024-02-09T07:12:52.883Z,6.78
2024-02-09T07:15:19.457Z,6.95
2024-02-09T07:17:46.013Z,6.65
2024-02-09T07:20:13.964Z,6.45
2024-02-09T07:22:40.634Z,6.72
2024-02-09T07:25:07.555Z,6.57
2024-02-09T07:27:34.106Z,6.53
2024-02-09T07:30:00.750Z,6.30
2024-02-09T07:32:27.282Z,6.13
2024-02-09T07:34:53.925Z,6.45
2024-02-09T07:37:23.676Z,6.32
2024-02-09T07:39:50.211Z,5.47
2024-02-09T07:42:18.517Z,6.20
2024-02-09T07:44:45.270Z,6.07
2024-02-09T07:47:11.712Z,6.07
2024-02-09T07:49:38.338Z,6.05
2024-02-09T07:52:05.255Z,6.05
2024-02-09T07:54:32.768Z,6.40
2024-02-09T07:57:00.209Z,5.78
2024-02-09T07:59:26.781Z,5.68
2024-02-09T08:01:54.005Z,6.35
2024-02-09T08:04:21.096Z,6.05
2024-02-09T08:06:49.947Z,5.15
2024-02-09T08:09:16.766Z,5.40
2024-02-09T08:11:46.198Z,5.30
2024-02-09T08:14:12.815Z,5.70
2024-02-09T08:16:40.112Z,5.68
2024-02-09T08:19:10.966Z,5.80
2024-02-09T08:21:40.288Z,5.75
2024-02-09T08:24:10.785Z,5.55
2024-02-09T08:26:45.292Z,5.35
2024-02-09T08:29:19.570Z,5.40
2024-02-09T08:31:46.086Z,5.22
2024-02-09T08:34:14.028Z,4.72
2024-02-09T08:36:41.006Z,5.30
2024-02-09T08:39:07.494Z,4.68
2024-02-09T08:41:34.783Z,4.85
2024-02-09T08:44:01.628Z,4.80
2024-02-09T08:46:28.549Z,4.72
2024-02-09T08:48:57.368Z,5.10
2024-02-09T08:51:24.906Z,4.85
2024-02-09T08:53:51.505Z,4.38
2024-02-09T08:56:18.039Z,4.70
2024-02-09T08:58:47.480Z,4.97
2024-02-09T09:01:14.509Z,4.72
2024-02-09T09:03:41.307Z,4.38
2024-02-09T09:06:08.748Z,4.22
2024-02-09T09:08:35.682Z,4.40
2024-02-09T09:11:02.828Z,4.90
2024-02-09T09:13:29.602Z,5.43
2024-02-09T09:15:56.092Z,5.07
2024-02-09T09:18:22.573Z,5.03
2024-02-09T09:20:49.218Z,4.43
2024-02-09T09:23:16.461Z,4.60
2024-02-09T09:25:43.076Z,5.07
2024-02-09T09:28:09.767Z,5.32
2024-02-09T09:30:36.347Z,5.65
2024-02-09T09:33:05.127Z,4.63
2024-02-09T09:35:31.705Z,4.95
2024-02-09T09:37:58.607Z,4.57
2024-02-09T09:40:32.515Z,4.78
2024-02-09T09:42:59.021Z,4.85
2024-02-09T09:45:25.499Z,4.20
2024-02-09T09:47:55.088Z,6.78
2024-02-09T09:50:21.712Z,4.25
2024-02-09T09:52:54.479Z,4.55
2024-02-09T09:55:22.126Z,4.68
2024-02-09T09:57:50.690Z,4.30
2024-02-09T10:00:18.425Z,3.83
2024-02-09T10:02:44.947Z,4.30
2024-02-09T10:05:12.477Z,4.40
2024-02-09T10:07:43.205Z,4.07
2024-02-09T10:10:14.651Z,4.85
2024-02-09T10:12:41.764Z,4.97
2024-02-09T10:15:09.035Z,4.72
2024-02-09T10:17:38.037Z,4.72
2024-02-09T10:20:04.901Z,4.50
2024-02-09T10:22:31.619Z,4.50
2024-02-09T10:24:58.205Z,4.45
2024-02-09T10:27:24.809Z,4.53
2024-02-09T10:29:52.741Z,4.43
2024-02-09T10:32:19.338Z,4.30
2024-02-09T10:34:49.059Z,4.72
2024-02-09T10:37:21.731Z,4.68
2024-02-09T10:39:57.704Z,4.72
2024-02-09T10:42:24.593Z,4.72
2024-02-09T10:44:59.090Z,4.22
2024-02-09T10:47:29.016Z,4.45
2024-02-09T10:49:58.634Z,4.75
2024-02-09T10:52:26.743Z,4.47
2024-02-09T10:54:55.995Z,4.60
2024-02-09T10:57:22.840Z,5.18
2024-02-09T10:59:49.496Z,4.50
2024-02-09T11:02:16.812Z,5.10
2024-02-09T11:04:44.379Z,4.75
2024-02-09T11:07:11.835Z,4.60
2024-02-09T11:09:40.694Z,4.93
2024-02-09T11:12:09.501Z,5.00
2024-02-09T11:14:38.081Z,5.30
2024-02-09T11:17:09.439Z,4.57
2024-02-09T11:19:39.965Z,4.53
2024-02-09T11:22:08.441Z,5.00
2024-02-09T11:24:34.951Z,4.80
2024-02-09T11:27:02.780Z,4.85
2024-02-09T11:29:31.116Z,4.88
2024-02-09T11:31:58.286Z,5.25
2024-02-09T11:34:26.239Z,5.22
2024-02-09T11:37:00.195Z,5.50
2024-02-09T11:39:32.473Z,4.97
2024-02-09T11:41:59.184Z,4.57
2024-02-09T11:44:25.683Z,4.85
2024-02-09T11:46:53.820Z,5.13
2024-02-09T11:49:21.804Z,4.90
2024-02-09T11:51:51.261Z,5.18
2024-02-09T11:54:19.944Z,5.47
2024-02-09T11:56:47.172Z,5.32
2024-02-09T11:59:13.859Z,5.55
2024-02-09T12:01:44.223Z,5.22
2024-02-09T12:04:11.971Z,4.72
2024-02-09T12:06:38.835Z,5.10
2024-02-09T12:09:05.684Z,5.10
2024-02-09T12:11:32.638Z,5.55
2024-02-09T12:13:59.478Z,4.88
2024-02-09T12:16:26.066Z,5.20
2024-02-09T12:18:56.585Z,6.40
2024-02-09T12:21:23.348Z,5.88
2024-02-09T12:23:51.081Z,5.20
2024-02-09T12:26:19.765Z,5.57
2024-02-09T12:28:49.403Z,6.35
2024-02-09T12:31:22.934Z,5.38
2024-02-09T12:33:51.358Z,5.25
2024-02-09T12:36:21.407Z,5.90
2024-02-09T12:38:59.488Z,6.18
2024-02-09T12:41:26.643Z,6.00
2024-02-09T12:44:04.775Z,5.13
2024-02-09T12:46:31.784Z,6.25
2024-02-09T12:48:58.537Z,6.10
2024-02-09T12:51:25.919Z,8.32
2024-02-09T12:53:52.932Z,4.80
2024-02-09T12:56:20.177Z,4.90
2024-02-09T12:58:48.003Z,5.55
2024-02-09T13:01:15.469Z,4.78
2024-02-09T13:03:44.359Z,5.15
2024-02-09T13:06:15.759Z,5.50
2024-02-09T13:08:42.720Z,5.97
2024-02-09T13:11:09.428Z,5.78
2024-02-09T13:13:39.281Z,6.97
2024-02-09T13:16:09.790Z,5.95
2024-02-09T13:18:36.571Z,5.85
2024-02-09T13:21:03.134Z,6.70
2024-02-09T13:23:30.857Z,5.93
2024-02-09T13:26:00.428Z,5.18
2024-02-09T13:28:31.268Z,6.15
2024-02-09T13:30:58.402Z,5.43
2024-02-09T13:33:25.446Z,5.60
2024-02-09T13:35:52.025Z,6.32
2024-02-09T13:38:18.556Z,5.60
2024-02-09T13:40:45.006Z,6.07
2024-02-09T13:43:11.564Z,6.20
2024-02-09T13:45:40.305Z,6.07
2024-02-09T13:48:10.346Z,5.60
2024-02-09T13:50:37.321Z,5.93
2024-02-09T13:53:04.387Z,6.38
2024-02-09T13:55:33.944Z,5.57
2024-02-09T13:58:01.137Z,6.07
2024-02-09T14:00:27.868Z,5.78
2024-02-09T14:02:54.572Z,6.38
2024-02-09T14:05:23.612Z,5.88
2024-02-09T14:07:52.181Z,6.43
2024-02-09T14:10:19.264Z,5.97
2024-02-09T14:12:46.187Z,5.93
2024-02-09T14:15:13.512Z,7.22
2024-02-09T14:17:41.198Z,6.72
2024-02-09T14:20:08.604Z,6.70
2024-02-09T14:22:35.754Z,6.43
2024-02-09T14:25:03.591Z,6.07
2024-02-09T14:27:30.414Z,5.68
2024-02-09T14:29:59.125Z,4.93
2024-02-09T14:32:26.265Z,5.22
2024-02-09T14:34:53.145Z,6.10
2024-02-09T14:37:22.314Z,5.57
2024-02-09T14:39:48.913Z,5.70
2024-02-09T14:42:15.491Z,5.50
2024-02-09T14:44:50.343Z,5.32
2024-02-09T14:47:18.082Z,5.10
2024-02-09T14:49:49.912Z,5.18
2024-02-09T14:52:17.440Z,4.80
2024-02-09T14:54:44.293Z,5.10
2024-02-09T14:57:12.074Z,4.72
2024-02-09T14:59:38.717Z,5.20
2024-02-09T15:02:05.484Z,4.60
2024-02-09T15:04:32.220Z,4.80
2024-02-09T15:06:58.809Z,4.55
2024-02-09T15:09:25.639Z,5.47
2024-02-09T15:11:53.076Z,4.50
2024-02-09T15:14:20.158Z,4.75
2024-02-09T15:16:46.641Z,4.88
2024-02-09T15:19:13.480Z,4.82
2024-02-09T15:21:42.452Z,4.55
2024-02-09T15:24:09.006Z,5.30
2024-02-09T15:26:36.637Z,5.05
2024-02-09T15:29:05.350Z,4.22
2024-02-09T15:31:32.747Z,5.07
2024-02-09T15:33:59.305Z,5.05
2024-02-09T15:36:29.072Z,4.53
2024-02-09T15:38:55.936Z,4.70
2024-02-09T15:41:22.831Z,5.22
2024-02-09T15:43:49.545Z,4.88
2024-02-09T15:46:17.753Z,4.03
2024-02-09T15:48:47.788Z,5.10
2024-02-09T15:51:27.859Z,4.40
2024-02-09T15:53:58.237Z,4.97
2024-02-09T15:56:26.419Z,4.28
2024-02-09T15:58:53.464Z,4.50
2024-02-09T16:01:20.493Z,5.35
2024-02-09T16:03:51.209Z,4.63
2024-02-09T16:06:18.434Z,4.13
2024-02-09T16:08:44.958Z,4.15
2024-02-09T16:11:11.917Z,4.43
2024-02-09T16:13:39.427Z,3.72
2024-02-09T16:16:08.616Z,4.70
2024-02-09T16:18:36.729Z,4.10
2024-02-09T16:21:03.378Z,4.38
2024-02-09T16:23:29.868Z,3.90
2024-02-09T16:26:02.530Z,4.80
2024-02-09T16:28:33.529Z,4.32
2024-02-09T16:31:00.861Z,4.47
2024-02-09T16:33:28.304Z,4.05
2024-02-09T16:35:54.884Z,4.55
2024-02-09T16:38:21.342Z,4.20
2024-02-09T16:40:49.179Z,4.38
2024-02-09T16:43:20.769Z,4.15
2024-02-09T16:45:47.410Z,3.60
2024-02-09T16:48:16.787Z,3.88
2024-02-09T16:50:43.853Z,3.90
2024-02-09T16:53:16.341Z,4.40
2024-02-09T16:55:43.960Z,4.32
2024-02-09T16:58:10.525Z,3.95
2024-02-09T17:00:37.076Z,4.53
2024-02-09T17:03:03.736Z,4.20
2024-02-09T17:05:30.475Z,4.50
2024-02-09T17:07:57.647Z,4.03
2024-02-09T17:10:24.277Z,4.15
2024-02-09T17:12:50.858Z,3.95
2024-02-09T17:15:18.049Z,4.43
2024-02-09T17:17:44.570Z,4.38
2024-02-09T17:20:11.434Z,4.25
2024-02-09T17:22:37.976Z,3.90
2024-02-09T17:25:04.809Z,4.20
2024-02-09T17:27:31.462Z,4.60
2024-02-09T17:29:58.081Z,4.00
2024-02-09T17:32:24.745Z,3.50
2024-02-09T17:34:51.862Z,3.40
2024-02-09T17:37:19.331Z,3.45
2024-02-09T17:39:45.877Z,3.22
2024-02-09T17:42:13.746Z,3.55
2024-02-09T17:44:40.309Z,3.45
2024-02-09T17:47:06.822Z,3.00
2024-02-09T17:49:34.393Z,3.22
2024-02-09T17:52:02.198Z,3.35
2024-02-09T17:54:28.773Z,4.05
2024-02-09T17:56:55.272Z,4.00
2024-02-09T17:59:21.782Z,3.35
2024-02-09T18:01:49.565Z,4.25
2024-02-09T18:04:16.820Z,3.88
2024-02-09T18:06:43.405Z,3.60
2024-02-09T18:09:09.987Z,3.20
2024-02-09T18:11:37.376Z,3.38
2024-02-09T18:14:03.895Z,3.10
2024-02-09T18:16:31.481Z,3.65
2024-02-09T18:18:57.983Z,2.78
2024-02-09T18:21:24.530Z,3.35
2024-02-09T18:23:52.956Z,2.92
2024-02-09T18:26:19.441Z,2.80
2024-02-09T18:28:46.383Z,3.35
2024-02-09T18:31:18.881Z,2.97
2024-02-09T18:33:47.414Z,3.03
2024-02-09T18:36:16.140Z,2.80
2024-02-09T18:38:43.627Z,2.92
2024-02-09T18:41:10.161Z,3.15
2024-02-09T18:43:37.342Z,2.88
2024-02-09T18:46:04.277Z,2.92
2024-02-09T18:48:30.977Z,2.88
2024-02-09T18:50:57.474Z,3.15
2024-02-09T18:53:23.981Z,2.83
2024-02-09T18:55:50.524Z,2.70
2024-02-09T18:58:17.150Z,3.17
2024-02-09T19:00:43.710Z,3.00
2024-02-09T19:03:10.288Z,3.15
2024-02-09T19:05:36.989Z,2.80
2024-02-09T19:08:04.352Z,3.28
2024-02-09T19:10:33.687Z,4.25
2024-02-09T19:13:02.156Z,3.67
2024-02-09T19:15:29.664Z,4.05
2024-02-09T19:17:56.544Z,4.15
2024-02-09T19:20:23.196Z,3.10
2024-02-09T19:22:49.955Z,3.70
2024-02-09T19:25:19.830Z,4.20
2024-02-09T19:27:47.914Z,3.50
2024-02-09T19:30:17.968Z,3.47
2024-02-09T19:32:47.671Z,3.50
2024-02-09T19:35:15.411Z,3.10
2024-02-09T19:37:44.271Z,2.75
2024-02-09T19:40:11.654Z,3.20
2024-02-09T19:42:38.342Z,2.90
2024-02-09T19:45:05.298Z,2.92
2024-02-09T19:47:32.060Z,2.90
2024-02-09T19:50:00.827Z,2.90
2024-02-09T19:52:28.915Z,3.05
2024-02-09T19:54:57.259Z,2.75
2024-02-09T19:57:23.793Z,3.03
2024-02-09T19:59:50.628Z,2.75
2024-02-09T20:02:19.545Z,2.92
2024-02-09T20:04:48.411Z,2.67
2024-02-09T20:07:15.985Z,3.30
2024-02-09T20:09:42.626Z,2.97
2024-02-09T20:12:10.918Z,3.50
2024-02-09T20:14:39.664Z,4.07
2024-02-09T20:17:06.887Z,3.10
2024-02-09T20:19:33.452Z,4.50
2024-02-09T20:22:03.545Z,2.70
2024-02-09T20:24:31.309Z,2.97
2024-02-09T20:27:02.207Z,2.80
2024-02-09T20:29:28.953Z,2.67
2024-02-09T20:31:55.596Z,2.35
2024-02-09T20:34:22.326Z,2.85
2024-02-09T20:36:49.967Z,2.60
2024-02-09T20:39:16.469Z,2.95
2024-02-09T20:41:42.937Z,3.20
2024-02-09T20:44:10.285Z,2.75
2024-02-09T20:46:36.993Z,2.40
2024-02-09T20:49:06.697Z,2.30
2024-02-09T20:51:34.023Z,2.30
2024-02-09T20:54:03.032Z,2.20
2024-02-09T20:56:29.784Z,1.95
2024-02-09T20:58:56.457Z,1.90
2024-02-09T21:01:23.787Z,2.30
2024-02-09T21:03:51.516Z,2.00
2024-02-09T21:06:19.819Z,2.40
2024-02-09T21:08:46.465Z,2.10
2024-02-09T21:11:13.112Z,2.40
2024-02-09T21:13:41.813Z,2.15
2024-02-09T21:16:08.516Z,2.80
2024-02-09T21:18:38.712Z,2.75
2024-02-09T21:21:06.395Z,2.63
2024-02-09T21:23:33.995Z,2.38
2024-02-09T21:26:01.051Z,2.83
2024-02-09T21:28:29.648Z,2.00
2024-02-09T21:30:56.133Z,2.33
2024-02-09T21:33:23.824Z,2.03
2024-02-09T21:35:57.093Z,2.33
2024-02-09T21:38:24.542Z,2.03
2024-02-09T21:40:51.049Z,2.20
2024-02-09T21:43:19.155Z,1.83
2024-02-09T21:45:48.323Z,2.05
2024-02-09T21:48:18.150Z,2.33
2024-02-09T21:50:47.808Z,1.98
2024-02-09T21:53:14.902Z,1.92
2024-02-09T21:55:41.611Z,1.95
2024-02-09T21:58:09.224Z,2.10
2024-02-09T22:00:36.829Z,1.88
2024-02-09T22:03:03.593Z,1.88
2024-02-09T22:05:31.944Z,1.67
2024-02-09T22:07:58.618Z,1.95
2024-02-09T22:10:27.190Z,1.88
2024-02-09T22:12:55.435Z,1.80
2024-02-09T22:15:23.203Z,2.03
2024-02-09T22:17:55.228Z,1.60
2024-02-09T22:20:24.681Z,1.80
2024-02-09T22:22:52.985Z,1.90
2024-02-09T22:25:19.775Z,1.60
2024-02-09T22:27:46.583Z,2.05
2024-02-09T22:30:13.280Z,2.08
2024-02-09T22:32:40.999Z,2.13
2024-02-09T22:35:12.352Z,1.88
2024-02-09T22:37:42.337Z,1.67
2024-02-09T22:40:15.307Z,1.83
2024-02-09T22:42:42.721Z,2.10
2024-02-09T22:45:10.980Z,2.25
2024-02-09T22:47:38.726Z,2.10
2024-02-09T22:50:07.149Z,1.92
2024-02-09T22:52:36.901Z,2.00
2024-02-09T22:55:03.958Z,2.05
2024-02-09T22:57:30.807Z,2.03
2024-02-09T22:59:57.888Z,1.70
2024-02-09T23:02:24.400Z,1.60
2024-02-09T23:04:54.856Z,1.90
2024-02-09T23:07:24.388Z,2.05
2024-02-09T23:09:50.867Z,2.15
2024-02-09T23:12:17.831Z,2.20
2024-02-09T23:14:45.376Z,1.73
2024-02-09T23:17:12.024Z,1.90
2024-02-09T23:19:40.411Z,2.00
2024-02-09T23:22:07.614Z,1.90
2024-02-09T23:24:34.728Z,1.90
2024-02-09T23:27:01.232Z,1.77
2024-02-09T23:29:27.757Z,1.95
2024-02-09T23:31:59.434Z,1.63
2024-02-09T23:34:26.309Z,2.08
2024-02-09T23:36:54.145Z,2.10
2024-02-09T23:39:22.319Z,1.75
2024-02-09T23:41:49.465Z,2.10
2024-02-09T23:44:24.460Z,2.00
2024-02-09T23:46:51.464Z,2.42
2024-02-09T23:49:19.735Z,2.10
2024-02-09T23:51:47.606Z,2.10
2024-02-09T23:54:16.110Z,2.08
2024-02-09T23:56:45.561Z,2.15
2024-02-09T23:59:16.772Z,2.03
